createdAt,value
2022-10-28T00:01:41.450Z,46.42
2022-10-28T00:04:08.089Z,46.44
2022-10-28T00:06:36.653Z,46.26
2022-10-28T00:09:05.711Z,46.47
2022-10-28T00:11:35.599Z,46.28
2022-10-28T00:14:05.073Z,46.21
2022-10-28T00:16:34.150Z,46.28
2022-10-28T00:19:02.351Z,46.15
2022-10-28T00:21:31.573Z,46.29
2022-10-28T00:23:58.293Z,46.06
2022-10-28T00:26:27.709Z,46.16
2022-10-28T00:28:57.061Z,46.22
2022-10-28T00:31:25.516Z,46.29
2022-10-28T00:33:52.726Z,46.12
2022-10-28T00:36:22.141Z,46.07
2022-10-28T00:38:50.901Z,46.39
2022-10-28T00:41:23.535Z,46.19
2022-10-28T00:43:54.056Z,46.06
2022-10-28T00:46:39.521Z,46.11
2022-10-28T00:49:21.908Z,45.85
2022-10-28T00:51:52.004Z,45.93
2022-10-28T00:54:19.906Z,45.92
2022-10-28T00:56:49.837Z,45.92
2022-10-28T00:59:29.736Z,45.82
2022-10-28T01:01:56.486Z,45.93
2022-10-28T01:04:23.448Z,45.72
2022-10-28T01:06:51.732Z,45.67
2022-10-28T01:09:18.346Z,45.59
2022-10-28T01:12:40.789Z,45.77
2022-10-28T01:15:09.943Z,45.83
2022-10-28T01:17:42.653Z,46.33
2022-10-28T01:20:27.616Z,46.40
2022-10-28T01:23:13.064Z,46.34
2022-10-28T01:25:42.556Z,46.54
2022-10-28T01:28:46.235Z,46.38
2022-10-28T01:34:22.982Z,46.01
2022-10-28T01:37:16.796Z,46.25
2022-10-28T01:39:52.424Z,46.48
2022-10-28T01:42:28.055Z,46.77
2022-10-28T01:44:55.504Z,46.84
2022-10-28T01:47:51.489Z,46.75
2022-10-28T01:50:24.056Z,46.88
2022-10-28T01:52:55.986Z,47.00
2022-10-28T01:55:28.399Z,46.97
2022-10-28T01:57:56.820Z,47.08
2022-10-28T02:00:23.627Z,46.90
2022-10-28T02:02:51.360Z,47.02
2022-10-28T02:05:39.672Z,47.08
2022-10-28T02:08:18.377Z,47.18
2022-10-28T02:11:00.237Z,47.19
2022-10-28T02:13:54.296Z,47.42
2022-10-28T02:16:26.708Z,47.55
2022-10-28T02:19:17.541Z,47.58
2022-10-28T02:21:44.554Z,47.65
2022-10-28T02:24:35.896Z,47.70
2022-10-28T02:27:17.996Z,47.36
2022-10-28T02:29:53.164Z,47.77
2022-10-28T02:32:26.530Z,47.65
2022-10-28T02:34:57.539Z,47.72
2022-10-28T02:37:30.402Z,47.78
2022-10-28T02:40:00.004Z,47.70
2022-10-28T02:42:39.992Z,47.63
2022-10-28T02:45:13.492Z,47.82
2022-10-28T02:47:44.687Z,47.83
2022-10-28T02:50:18.100Z,47.84
2022-10-28T02:52:49.924Z,47.92
2022-10-28T02:55:18.892Z,47.96
2022-10-28T02:57:49.165Z,47.92
2022-10-28T03:00:19.787Z,47.79
2022-10-28T03:02:46.923Z,47.90
2022-10-28T03:05:14.254Z,47.63
2022-10-28T03:09:00.826Z,47.81
2022-10-28T03:11:27.486Z,47.82
2022-10-28T03:13:54.003Z,47.96
2022-10-28T03:16:20.861Z,48.00
2022-10-28T03:18:47.420Z,47.85
2022-10-28T03:21:13.961Z,47.75
2022-10-28T03:23:40.513Z,47.72
2022-10-28T03:26:07.059Z,48.12
2022-10-28T03:28:33.567Z,47.89
2022-10-28T03:31:00.128Z,48.01
2022-10-28T03:33:26.683Z,47.74
2022-10-28T03:35:53.220Z,47.85
2022-10-28T03:38:19.737Z,47.93
2022-10-28T03:40:50.313Z,48.16
2022-10-28T03:43:17.616Z,47.91
2022-10-28T03:45:44.752Z,48.06
2022-10-28T03:48:11.356Z,47.86
2022-10-28T03:50:37.855Z,48.01
2022-10-28T03:53:04.562Z,47.86
2022-10-28T03:55:31.107Z,47.92
2022-10-28T03:58:00.786Z,47.79
2022-10-28T04:00:27.624Z,47.91
2022-10-28T04:02:54.497Z,47.91
2022-10-28T04:05:21.790Z,48.14
2022-10-28T04:07:48.511Z,48.01
2022-10-28T04:10:15.025Z,47.92
2022-10-28T04:12:41.588Z,47.88
2022-10-28T04:15:08.410Z,48.01
2022-10-28T04:17:35.223Z,47.97
2022-10-28T04:20:01.784Z,48.18
2022-10-28T04:22:28.481Z,47.91
2022-10-28T04:24:55.040Z,47.87
2022-10-28T04:27:22.047Z,48.13
2022-10-28T04:29:48.657Z,47.87
2022-10-28T04:32:15.231Z,48.01
2022-10-28T04:34:41.772Z,47.95
2022-10-28T04:37:08.353Z,48.02
2022-10-28T04:40:57.877Z,47.97
2022-10-28T04:43:24.529Z,48.12
2022-10-28T04:45:51.033Z,48.50
2022-10-28T04:48:17.675Z,48.20
2022-10-28T04:50:44.506Z,48.30
2022-10-28T04:53:11.739Z,48.02
2022-10-28T04:55:38.344Z,48.14
2022-10-28T04:58:05.392Z,48.24
2022-10-28T05:00:32.141Z,48.10
2022-10-28T05:03:02.823Z,48.03
2022-10-28T05:05:29.866Z,47.98
2022-10-28T05:07:56.945Z,48.07
2022-10-28T05:10:23.870Z,48.11
2022-10-28T05:12:50.527Z,48.25
2022-10-28T05:15:19.519Z,47.86
2022-10-28T05:17:47.403Z,48.07
2022-10-28T05:20:16.284Z,48.14
2022-10-28T05:22:47.992Z,47.98
2022-10-28T05:25:14.994Z,48.28
2022-10-28T05:27:41.911Z,48.24
2022-10-28T05:30:09.666Z,48.12
2022-10-28T05:32:36.364Z,48.05
2022-10-28T05:35:03.808Z,47.92
2022-10-28T05:37:30.385Z,47.81
2022-10-28T05:39:56.992Z,47.72
2022-10-28T05:42:23.680Z,47.78
2022-10-28T05:44:50.296Z,47.32
2022-10-28T05:47:16.775Z,47.69
2022-10-28T05:49:43.396Z,47.30
2022-10-28T05:52:09.895Z,47.10
2022-10-28T05:54:36.537Z,47.28
2022-10-28T05:57:03.152Z,47.42
2022-10-28T05:59:29.700Z,47.20
2022-10-28T06:01:56.248Z,47.39
2022-10-28T06:04:22.981Z,47.40
2022-10-28T06:06:49.469Z,47.18
2022-10-28T06:09:16.013Z,46.89
2022-10-28T06:11:41.069Z,47.02
2022-10-28T06:14:07.691Z,47.05
2022-10-28T06:16:34.195Z,47.00
2022-10-28T06:19:00.843Z,47.15
2022-10-28T06:21:27.356Z,47.20
2022-10-28T06:23:54.004Z,47.01
2022-10-28T06:26:20.530Z,46.84
2022-10-28T06:28:47.187Z,47.09
2022-10-28T06:31:13.826Z,46.95
2022-10-28T06:33:40.590Z,47.07
2022-10-28T06:36:07.601Z,46.96
2022-10-28T06:38:34.151Z,47.05
2022-10-28T06:41:01.022Z,46.82
2022-10-28T06:43:27.664Z,46.66
2022-10-28T06:45:55.806Z,46.83
2022-10-28T06:48:24.558Z,46.84
2022-10-28T06:50:51.155Z,46.94
2022-10-28T06:55:37.138Z,43.82
2022-10-28T06:58:04.089Z,44.00
2022-10-28T07:00:33.298Z,44.27
2022-10-28T07:03:00.532Z,45.04
2022-10-28T07:05:28.110Z,45.09
2022-10-28T07:07:55.485Z,45.77
2022-10-28T07:10:22.505Z,45.72
2022-10-28T07:12:49.076Z,46.45
2022-10-28T07:15:15.934Z,46.56
2022-10-28T07:17:42.691Z,47.00
2022-10-28T07:20:09.867Z,47.28
2022-10-28T07:22:36.503Z,47.44
2022-10-28T07:25:03.171Z,47.98
2022-10-28T07:27:29.703Z,48.25
2022-10-28T07:29:56.204Z,48.43
2022-10-28T07:32:22.895Z,48.47
2022-10-28T07:34:49.482Z,48.85
2022-10-28T07:37:16.098Z,48.98
2022-10-28T07:39:42.840Z,49.13
2022-10-28T07:42:09.577Z,49.20
2022-10-28T07:44:36.138Z,49.52
2022-10-28T07:47:02.781Z,49.63
2022-10-28T07:49:29.367Z,49.42
2022-10-28T07:51:56.294Z,49.16
2022-10-28T07:54:23.093Z,48.51
2022-10-28T07:56:50.025Z,48.23
2022-10-28T07:59:16.615Z,47.32
2022-10-28T08:01:43.357Z,46.92
2022-10-28T08:04:10.065Z,46.55
2022-10-28T08:06:36.778Z,46.22
2022-10-28T08:09:03.857Z,46.02
2022-10-28T08:11:30.680Z,45.98
2022-10-28T08:13:59.924Z,46.10
2022-10-28T08:16:29.037Z,45.82
2022-10-28T08:18:56.782Z,45.80
2022-10-28T08:21:24.379Z,45.70
2022-10-28T08:23:51.267Z,45.50
2022-10-28T08:26:17.819Z,45.79
2022-10-28T08:28:44.357Z,46.05
2022-10-28T08:31:12.485Z,46.23
2022-10-28T08:33:46.901Z,46.74
2022-10-28T08:36:15.550Z,46.96
2022-10-28T08:38:46.761Z,47.35
2022-10-28T08:43:56.717Z,47.63
2022-10-28T08:46:51.895Z,47.05
2022-10-28T08:49:21.915Z,46.82
2022-10-28T08:51:52.838Z,46.53
2022-10-28T08:54:24.446Z,46.48
2022-10-28T08:56:54.896Z,46.38
2022-10-28T08:59:28.047Z,46.08
2022-10-28T09:02:01.199Z,46.07
2022-10-28T09:04:45.660Z,46.04
2022-10-28T09:07:22.853Z,45.78
2022-10-28T09:09:51.285Z,45.82
2022-10-28T09:12:42.594Z,45.76
2022-10-28T09:15:33.545Z,45.60
2022-10-28T09:18:12.118Z,45.38
2022-10-28T09:21:00.355Z,45.40
2022-10-28T09:23:37.390Z,45.31
2022-10-28T09:26:16.303Z,45.28
2022-10-28T09:28:54.948Z,45.51
2022-10-28T09:31:28.943Z,45.44
2022-10-28T09:34:23.516Z,45.15
2022-10-28T09:36:58.587Z,45.35
2022-10-28T09:39:29.667Z,45.00
2022-10-28T09:42:01.445Z,45.03
2022-10-28T09:44:41.626Z,44.95
2022-10-28T09:49:37.558Z,44.84
2022-10-28T09:52:39.467Z,44.68
2022-10-28T09:55:20.187Z,44.92
2022-10-28T09:57:46.799Z,44.92
2022-10-28T10:00:14.994Z,45.32
2022-10-28T10:02:42.792Z,45.32
2022-10-28T10:05:17.173Z,45.35
2022-10-28T10:07:56.767Z,45.30
2022-10-28T10:10:31.563Z,45.25
2022-10-28T10:13:02.744Z,45.04
2022-10-28T10:15:41.006Z,45.01
2022-10-28T10:18:15.630Z,45.08
2022-10-28T10:24:26.481Z,45.51
2022-10-28T10:26:54.207Z,46.07
2022-10-28T10:29:22.103Z,46.41
2022-10-28T10:31:54.461Z,46.69
2022-10-28T10:34:25.142Z,46.46
2022-10-28T10:36:55.739Z,46.85
2022-10-28T10:39:42.605Z,47.20
2022-10-28T10:42:20.360Z,47.16
2022-10-28T10:44:56.410Z,47.46
2022-10-28T10:47:23.177Z,47.55
2022-10-28T10:49:51.902Z,47.75
2022-10-28T10:52:22.870Z,48.04
2022-10-28T10:55:05.195Z,48.20
2022-10-28T10:57:33.579Z,48.23
2022-10-28T11:00:00.709Z,48.33
2022-10-28T11:02:37.060Z,48.48
2022-10-28T11:05:08.390Z,48.54
2022-10-28T11:07:38.035Z,48.60
2022-10-28T11:10:05.255Z,48.34
2022-10-28T11:12:35.525Z,47.97
2022-10-28T11:15:21.459Z,47.73
2022-10-28T11:18:09.539Z,47.16
2022-10-28T11:21:07.278Z,46.86
2022-10-28T11:23:58.612Z,46.59
2022-10-28T11:26:25.914Z,46.42
2022-10-28T11:29:11.114Z,46.66
2022-10-28T11:34:12.911Z,46.95
2022-10-28T11:37:05.251Z,46.71
2022-10-28T11:39:43.142Z,46.37
2022-10-28T11:42:39.715Z,46.13
2022-10-28T11:45:14.676Z,45.83
2022-10-28T11:48:06.007Z,45.96
2022-10-28T11:53:21.192Z,45.74
2022-10-28T11:56:02.220Z,45.83
2022-10-28T11:58:52.431Z,45.47
2022-10-28T12:01:55.825Z,45.43
2022-10-28T12:04:22.810Z,45.51
2022-10-28T12:07:01.460Z,45.18
2022-10-28T12:09:37.223Z,45.20
2022-10-28T12:12:17.509Z,45.11
2022-10-28T12:14:57.005Z,45.07
2022-10-28T12:17:44.031Z,45.25
2022-10-28T12:20:52.775Z,45.10
2022-10-28T12:23:22.168Z,45.11
2022-10-28T12:25:54.835Z,45.20
2022-10-28T12:28:32.588Z,45.27
2022-10-28T12:31:00.618Z,45.52
2022-10-28T12:33:39.310Z,45.69
2022-10-28T12:36:08.746Z,45.63
2022-10-28T12:38:59.916Z,45.56
2022-10-28T12:41:32.078Z,45.38
2022-10-28T12:44:05.194Z,45.41
2022-10-28T12:46:34.455Z,45.46
2022-10-28T12:49:14.442Z,45.38
2022-10-28T12:51:41.940Z,45.28
2022-10-28T12:54:27.507Z,45.21
2022-10-28T12:57:02.819Z,45.20
2022-10-28T12:59:37.022Z,45.28
2022-10-28T13:02:05.639Z,45.15
2022-10-28T13:04:32.500Z,45.05
2022-10-28T13:07:11.095Z,45.02
2022-10-28T13:09:39.187Z,44.93
2022-10-28T13:12:09.094Z,44.96
2022-10-28T13:14:50.719Z,44.80
2022-10-28T13:17:36.211Z,44.70
2022-10-28T13:20:27.802Z,44.41
2022-10-28T13:23:15.551Z,44.25
2022-10-28T13:26:11.892Z,44.23
2022-10-28T13:28:51.575Z,44.37
2022-10-28T13:31:19.889Z,44.29
2022-10-28T13:34:19.211Z,44.50
2022-10-28T13:36:56.550Z,44.44
2022-10-28T13:39:40.618Z,44.31
2022-10-28T13:42:13.360Z,44.35
2022-10-28T13:44:55.627Z,44.67
2022-10-28T13:47:34.347Z,44.52
2022-10-28T13:50:06.834Z,44.61
2022-10-28T13:52:33.956Z,44.65
2022-10-28T13:55:21.558Z,44.79
2022-10-28T13:57:51.979Z,44.77
2022-10-28T14:00:18.758Z,44.66
2022-10-28T14:02:55.575Z,44.76
2022-10-28T14:05:45.764Z,44.61
2022-10-28T14:08:29.495Z,44.50
2022-10-28T14:11:05.287Z,44.85
2022-10-28T14:13:50.634Z,44.69
2022-10-28T14:16:29.947Z,45.00
2022-10-28T14:19:01.286Z,44.97
2022-10-28T14:21:51.020Z,44.87
2022-10-28T14:24:37.639Z,44.72
2022-10-28T14:27:12.162Z,44.95
2022-10-28T14:30:12.542Z,44.83
2022-10-28T14:32:41.706Z,45.12
2022-10-28T14:35:12.827Z,44.86
2022-10-28T14:38:16.810Z,45.41
2022-10-28T14:40:46.389Z,45.68
2022-10-28T14:43:30.390Z,45.53
2022-10-28T14:46:24.702Z,45.59
2022-10-28T14:48:53.451Z,45.69
2022-10-28T14:51:24.579Z,45.48
2022-10-28T14:53:57.306Z,45.54
2022-10-28T14:56:31.084Z,45.34
2022-10-28T14:59:02.867Z,45.38
2022-10-28T15:01:49.196Z,45.51
2022-10-28T15:04:16.431Z,45.59
2022-10-28T15:09:20.871Z,46.50
2022-10-28T15:11:52.223Z,46.91
2022-10-28T15:14:25.040Z,47.25
2022-10-28T15:16:52.464Z,47.57
2022-10-28T15:19:27.547Z,47.58
2022-10-28T15:22:33.519Z,47.45
2022-10-28T15:25:02.654Z,47.34
2022-10-28T15:27:31.996Z,47.28
2022-10-28T15:32:21.815Z,47.39
2022-10-28T15:34:49.117Z,47.47
2022-10-28T15:38:08.585Z,47.33
2022-10-28T15:40:35.716Z,47.43
2022-10-28T15:43:07.417Z,47.40
2022-10-28T15:45:42.197Z,47.42
2022-10-28T15:48:14.402Z,47.18
2022-10-28T15:50:41.836Z,46.88
2022-10-28T15:53:11.619Z,46.92
2022-10-28T15:56:06.831Z,46.84
2022-10-28T15:58:39.711Z,46.84
2022-10-28T16:01:10.783Z,46.86
2022-10-28T16:03:41.695Z,46.76
2022-10-28T16:06:33.574Z,46.99
2022-10-28T16:09:06.218Z,47.19
2022-10-28T16:11:36.452Z,47.28
2022-10-28T16:14:14.654Z,47.41
2022-10-28T16:16:41.341Z,47.70
2022-10-28T16:19:14.859Z,47.91
2022-10-28T16:21:41.478Z,47.84
2022-10-28T16:24:10.514Z,48.13
2022-10-28T16:26:37.395Z,47.96
2022-10-28T16:29:04.722Z,47.98
2022-10-28T16:31:31.761Z,48.10
2022-10-28T16:33:59.539Z,48.67
2022-10-28T16:38:40.877Z,47.99
2022-10-28T16:41:15.522Z,48.12
2022-10-28T16:43:47.635Z,47.90
2022-10-28T16:46:14.399Z,47.94
2022-10-28T16:48:41.337Z,47.87
2022-10-28T16:51:17.939Z,47.67
2022-10-28T16:53:47.325Z,47.67
2022-10-28T16:56:18.063Z,47.71
2022-10-28T16:58:44.817Z,47.40
2022-10-28T17:01:12.107Z,47.35
2022-10-28T17:03:39.063Z,47.33
2022-10-28T17:06:05.851Z,47.48
2022-10-28T17:09:00.712Z,47.55
2022-10-28T17:11:19.283Z,47.57
2022-10-28T17:13:45.922Z,47.56
2022-10-28T17:16:12.906Z,47.42
2022-10-28T17:18:40.138Z,47.63
2022-10-28T17:21:06.778Z,47.58
2022-10-28T17:23:33.303Z,47.45
2022-10-28T17:26:01.689Z,47.46
2022-10-28T17:28:28.463Z,47.42
2022-10-28T17:31:07.808Z,47.46
2022-10-28T17:33:35.189Z,47.49
2022-10-28T17:36:06.289Z,47.60
2022-10-28T17:38:33.640Z,47.63
2022-10-28T17:41:03.277Z,47.53
2022-10-28T17:43:29.833Z,47.62
2022-10-28T17:46:04.574Z,47.55
2022-10-28T17:48:31.306Z,47.74
2022-10-28T17:50:57.801Z,47.65
2022-10-28T17:53:24.399Z,47.72
2022-10-28T17:56:01.447Z,47.58
2022-10-28T17:58:28.887Z,47.86
2022-10-28T18:01:04.173Z,47.98
2022-10-28T18:03:34.107Z,47.96
2022-10-28T18:06:10.214Z,47.87
2022-10-28T18:08:42.400Z,47.73
2022-10-28T18:11:11.929Z,47.76
2022-10-28T18:13:40.802Z,47.50
2022-10-28T18:16:13.615Z,47.53
2022-10-28T18:18:42.553Z,47.41
2022-10-28T18:21:10.600Z,47.40
2022-10-28T18:23:37.313Z,47.24
2022-10-28T18:26:09.122Z,47.40
2022-10-28T18:28:36.744Z,47.09
2022-10-28T18:31:09.482Z,47.15
2022-10-28T18:33:36.245Z,47.03
2022-10-28T18:36:10.265Z,46.93
2022-10-28T18:38:36.903Z,46.83
2022-10-28T18:41:03.629Z,46.77
2022-10-28T18:43:30.319Z,46.94
2022-10-28T18:46:03.181Z,47.30
2022-10-28T18:48:31.068Z,47.54
2022-10-28T18:50:59.234Z,47.82
2022-10-28T18:53:26.102Z,47.75
2022-10-28T18:55:53.108Z,47.74
2022-10-28T18:58:19.752Z,47.47
2022-10-28T19:00:46.356Z,47.44
2022-10-28T19:03:23.741Z,47.32
2022-10-28T19:05:50.335Z,47.09
2022-10-28T19:08:16.844Z,47.14
2022-10-28T19:10:43.496Z,47.09
2022-10-28T19:13:10.026Z,47.04
2022-10-28T19:15:42.385Z,47.08
2022-10-28T19:18:09.014Z,47.05
2022-10-28T19:20:35.514Z,47.08
2022-10-28T19:23:04.784Z,47.22
2022-10-28T19:25:31.448Z,47.10
2022-10-28T19:27:59.493Z,47.04
2022-10-28T19:30:26.507Z,47.01
2022-10-28T19:32:53.583Z,46.90
2022-10-28T19:35:23.358Z,46.93
2022-10-28T19:37:52.855Z,46.94
2022-10-28T19:40:19.688Z,46.99
2022-10-28T19:42:46.486Z,46.64
2022-10-28T19:45:13.282Z,46.72
2022-10-28T19:47:39.989Z,46.52
2022-10-28T19:50:07.175Z,46.30
2022-10-28T19:52:33.772Z,46.18
2022-10-28T19:55:00.510Z,46.01
2022-10-28T19:57:27.074Z,46.01
2022-10-28T19:59:53.669Z,45.88
2022-10-28T20:02:23.653Z,45.74
2022-10-28T20:04:54.817Z,45.67
2022-10-28T20:07:23.591Z,46.38
2022-10-28T20:09:50.621Z,46.05
2022-10-28T20:12:17.810Z,46.04
2022-10-28T20:14:45.454Z,46.08
2022-10-28T20:17:13.908Z,46.31
2022-10-28T20:19:40.823Z,46.50
2022-10-28T20:22:08.812Z,46.59
2022-10-28T20:24:35.817Z,46.65
2022-10-28T20:27:02.521Z,46.48
2022-10-28T20:29:29.151Z,46.60
2022-10-28T20:31:55.762Z,46.57
2022-10-28T20:34:22.320Z,46.63
2022-10-28T20:36:49.274Z,46.32
2022-10-28T20:39:17.979Z,46.41
2022-10-28T20:41:49.244Z,46.27
2022-10-28T20:44:16.101Z,46.25
2022-10-28T20:46:44.890Z,46.42
2022-10-28T20:49:13.140Z,46.25
2022-10-28T20:51:39.853Z,46.24
2022-10-28T20:54:06.714Z,46.32
2022-10-28T20:56:36.551Z,46.26
2022-10-28T20:59:05.548Z,46.37
2022-10-28T21:01:35.161Z,46.33
2022-10-28T21:04:04.983Z,46.45
2022-10-28T21:06:31.858Z,46.25
2022-10-28T21:08:59.083Z,46.27
2022-10-28T21:11:27.615Z,46.21
2022-10-28T21:13:57.024Z,46.15
2022-10-28T21:16:24.599Z,46.11
2022-10-28T21:18:51.759Z,46.24
2022-10-28T21:21:19.756Z,46.00
2022-10-28T21:23:46.338Z,46.06
2022-10-28T21:26:13.387Z,45.96
2022-10-28T21:28:41.443Z,45.89
2022-10-28T21:31:16.284Z,45.84
2022-10-28T21:33:43.771Z,45.80
2022-10-28T21:36:13.753Z,45.79
2022-10-28T21:38:40.743Z,45.82
2022-10-28T21:41:10.942Z,45.71
2022-10-28T21:43:39.852Z,45.74
2022-10-28T21:46:07.314Z,45.49
2022-10-28T21:48:35.524Z,45.71
2022-10-28T21:51:06.325Z,45.70
2022-10-28T21:53:38.173Z,45.74
2022-10-28T21:56:05.934Z,45.65
2022-10-28T21:58:35.146Z,45.81
2022-10-28T22:01:08.067Z,45.75
2022-10-28T22:03:34.835Z,45.71
2022-10-28T22:06:02.506Z,45.95
2022-10-28T22:08:29.364Z,45.75
2022-10-28T22:11:16.204Z,45.70
2022-10-28T22:13:42.911Z,45.73
2022-10-28T22:16:14.961Z,45.59
2022-10-28T22:18:41.666Z,45.73
2022-10-28T22:21:22.940Z,45.73
2022-10-28T22:23:50.014Z,45.73
2022-10-28T22:26:20.396Z,45.85
2022-10-28T22:28:47.892Z,45.70
2022-10-28T22:31:17.694Z,45.86
2022-10-28T22:36:20.721Z,46.07
2022-10-28T22:38:48.039Z,45.78
2022-10-28T22:41:19.820Z,45.92
2022-10-28T22:43:49.773Z,45.88
2022-10-28T22:46:18.106Z,45.93
2022-10-28T22:48:45.571Z,45.69
2022-10-28T22:51:12.367Z,45.87
2022-10-28T22:53:40.115Z,46.00
2022-10-28T22:56:08.148Z,45.83
2022-10-28T22:58:35.068Z,45.83
2022-10-28T23:01:06.765Z,45.79
2022-10-28T23:03:38.745Z,45.97
2022-10-28T23:06:05.675Z,45.95
2022-10-28T23:08:32.807Z,45.92
2022-10-28T23:11:00.114Z,45.86
2022-10-28T23:13:27.107Z,45.73
2022-10-28T23:15:54.345Z,45.79
2022-10-28T23:18:21.744Z,45.91
2022-10-28T23:23:12.566Z,46.03
2022-10-28T23:25:40.612Z,45.83
2022-10-28T23:28:07.368Z,45.82
2022-10-28T23:30:34.074Z,46.00
2022-10-28T23:33:00.830Z,45.89
2022-10-28T23:35:27.388Z,46.04
2022-10-28T23:37:54.152Z,45.89
2022-10-28T23:40:20.995Z,46.00
2022-10-28T23:42:47.480Z,45.75
2022-10-28T23:45:14.156Z,45.76
2022-10-28T23:47:40.674Z,45.90
2022-10-28T23:50:10.825Z,45.91
2022-10-28T23:52:37.695Z,45.92
2022-10-28T23:55:04.647Z,45.91
2022-10-28T23:57:31.194Z,45.88
2022-10-28T23:59:57.747Z,45.73
